AAY3890 KPVU-KBUR
Flight info
| Callsign | AAY3890 |
|---|---|
| Flight time | 1h 15m |
| Altitude | 34000 |
| Route | DITTI1 DAHLI MLF WINEN/N0468F330 EEVUN/N0466F340 Q73 GUNTR Q96 PURSE JANNY5 |
| Aircraft | A320/M-SDE3FGHIRWY/LB1 |
Departure
| Time | 2026-05-08 03:28 |
|---|---|
| Airport | Provo Municipal Airport (KPVU) |
Arrival
| Time | 2026-05-08 04:43 |
|---|---|
| Airport | Hollywood Burbank/Bob Hope Airport (KBUR) |
| Time | Latitude | Longitude | Altitude | Speed | Heading |
|---|---|---|---|---|---|
| 2026-05-08 03:12 | 40.21304 | -111.71275 | 4500 ft | 0 kts | 55° |
| 2026-05-08 03:20 | 40.21293 | -111.71296 | 4500 ft | 4 kts | 61° |
| 2026-05-08 03:21 | 40.21282 | -111.71328 | 4502 ft | 4 kts | 72° |
| 2026-05-08 03:21 | 40.21278 | -111.71342 | 4501 ft | 0 kts | 73° |
| 2026-05-08 03:24 | 40.21279 | -111.71340 | 4501 ft | 0 kts | 73° |
| 2026-05-08 03:25 | 40.21272 | -111.71329 | 4500 ft | 2 kts | 183° |
| 2026-05-08 03:25 | 40.21258 | -111.71366 | 4500 ft | 8 kts | 237° |
| 2026-05-08 03:25 | 40.21201 | -111.71415 | 4500 ft | 13 kts | 151° |
| 2026-05-08 03:25 | 40.21110 | -111.71446 | 4498 ft | 19 kts | 234° |
| 2026-05-08 03:26 | 40.21085 | -111.71526 | 4497 ft | 0 kts | 268° |
| 2026-05-08 03:26 | 40.21090 | -111.71528 | 4497 ft | 1 kts | 321° |
| 2026-05-08 03:27 | 40.21092 | -111.71531 | 4497 ft | 3 kts | 322° |
| 2026-05-08 03:27 | 40.21263 | -111.71686 | 4500 ft | 67 kts | 326° |
| 2026-05-08 03:27 | 40.21843 | -111.72200 | 4502 ft | 132 kts | 326° |
| 2026-05-08 03:27 | 40.22734 | -111.72992 | 4693 ft | 162 kts | 325° |
| 2026-05-08 03:28 | 40.23595 | -111.73919 | 5363 ft | 163 kts | 300° |
| 2026-05-08 03:28 | 40.23863 | -111.75330 | 5957 ft | 164 kts | 262° |
| 2026-05-08 03:28 | 40.23398 | -111.76705 | 6408 ft | 174 kts | 230° |
| 2026-05-08 03:28 | 40.22531 | -111.78003 | 6417 ft | 204 kts | 229° |
| 2026-05-08 03:29 | 40.21537 | -111.79464 | 6598 ft | 226 kts | 228° |
| 2026-05-08 03:29 | 40.20447 | -111.81068 | 6707 ft | 251 kts | 230° |
| 2026-05-08 03:29 | 40.19240 | -111.82855 | 6993 ft | 273 kts | 230° |
| 2026-05-08 03:29 | 40.17965 | -111.84749 | 7563 ft | 281 kts | 230° |
| 2026-05-08 03:30 | 40.15357 | -111.88639 | 8880 ft | 287 kts | 231° |
| 2026-05-08 03:30 | 40.12247 | -111.91864 | 10299 ft | 304 kts | 203° |
| 2026-05-08 03:31 | 40.07815 | -111.93326 | 10612 ft | 353 kts | 193° |
| 2026-05-08 03:31 | 40.02641 | -111.94210 | 10797 ft | 398 kts | 182° |
| 2026-05-08 03:32 | 39.99824 | -111.93894 | 11060 ft | 414 kts | 173° |
| 2026-05-08 03:32 | 39.97001 | -111.92997 | 11570 ft | 421 kts | 165° |
| 2026-05-08 03:32 | 39.94180 | -111.91896 | 12127 ft | 425 kts | 166° |
| 2026-05-08 03:32 | 39.91320 | -111.90832 | 12684 ft | 428 kts | 169° |
| 2026-05-08 03:33 | 39.88376 | -111.90265 | 13200 ft | 428 kts | 180° |
| 2026-05-08 03:33 | 39.85392 | -111.90345 | 13716 ft | 429 kts | 189° |
| 2026-05-08 03:33 | 39.82414 | -111.90836 | 14144 ft | 433 kts | 191° |
| 2026-05-08 03:33 | 39.79445 | -111.91340 | 14589 ft | 437 kts | 191° |
| 2026-05-08 03:34 | 39.76417 | -111.91856 | 15031 ft | 441 kts | 191° |
| 2026-05-08 03:34 | 39.73372 | -111.92468 | 15438 ft | 443 kts | 196° |
| 2026-05-08 03:34 | 39.70432 | -111.93639 | 15851 ft | 443 kts | 206° |
| 2026-05-08 03:34 | 39.67684 | -111.95420 | 16291 ft | 442 kts | 215° |
| 2026-05-08 03:35 | 39.65092 | -111.97571 | 16722 ft | 444 kts | 216° |
| 2026-05-08 03:35 | 39.62475 | -111.99741 | 17137 ft | 447 kts | 216° |
| 2026-05-08 03:35 | 39.60698 | -112.01202 | 17441 ft | 449 kts | 216° |
| 2026-05-08 03:35 | 39.58051 | -112.03366 | 17867 ft | 451 kts | 216° |
| 2026-05-08 03:36 | 39.55413 | -112.05514 | 18230 ft | 455 kts | 216° |
| 2026-05-08 03:36 | 39.52726 | -112.07702 | 18536 ft | 458 kts | 216° |
| 2026-05-08 03:36 | 39.50023 | -112.09906 | 18849 ft | 460 kts | 216° |
| 2026-05-08 03:36 | 39.47306 | -112.12125 | 19161 ft | 463 kts | 216° |
| 2026-05-08 03:37 | 39.44576 | -112.14355 | 19450 ft | 465 kts | 216° |
| 2026-05-08 03:37 | 39.41829 | -112.16598 | 19733 ft | 468 kts | 216° |
| 2026-05-08 03:37 | 39.39065 | -112.18850 | 20023 ft | 470 kts | 216° |
| 2026-05-08 03:37 | 39.36294 | -112.21105 | 20303 ft | 472 kts | 216° |
| 2026-05-08 03:38 | 39.33503 | -112.23374 | 20593 ft | 474 kts | 216° |
| 2026-05-08 03:38 | 39.30707 | -112.25649 | 20871 ft | 477 kts | 216° |
| 2026-05-08 03:38 | 39.27894 | -112.27936 | 21173 ft | 479 kts | 216° |
| 2026-05-08 03:38 | 39.25066 | -112.30233 | 21448 ft | 481 kts | 216° |
| 2026-05-08 03:39 | 39.22227 | -112.32535 | 21718 ft | 483 kts | 216° |
| 2026-05-08 03:39 | 39.19372 | -112.34845 | 21972 ft | 486 kts | 215° |
| 2026-05-08 03:39 | 39.16503 | -112.37163 | 22216 ft | 488 kts | 215° |
| 2026-05-08 03:39 | 39.13621 | -112.39492 | 22454 ft | 490 kts | 215° |
| 2026-05-08 03:40 | 39.10729 | -112.41827 | 22687 ft | 491 kts | 216° |
| 2026-05-08 03:40 | 39.07825 | -112.44170 | 22915 ft | 493 kts | 215° |
| 2026-05-08 03:40 | 39.04913 | -112.46515 | 23112 ft | 495 kts | 215° |
| 2026-05-08 03:40 | 39.02027 | -112.48835 | 23326 ft | 496 kts | 215° |
| 2026-05-08 03:41 | 38.99099 | -112.51184 | 23479 ft | 496 kts | 215° |
| 2026-05-08 03:41 | 38.96175 | -112.53529 | 23731 ft | 495 kts | 215° |
| 2026-05-08 03:41 | 38.93251 | -112.55872 | 23981 ft | 495 kts | 215° |
| 2026-05-08 03:41 | 38.90326 | -112.58215 | 24253 ft | 495 kts | 215° |
| 2026-05-08 03:42 | 38.87402 | -112.60552 | 24487 ft | 494 kts | 215° |
| 2026-05-08 03:42 | 38.84480 | -112.62883 | 24706 ft | 495 kts | 215° |
| 2026-05-08 03:42 | 38.81555 | -112.65218 | 24966 ft | 495 kts | 215° |
| 2026-05-08 03:42 | 38.78625 | -112.67553 | 25241 ft | 495 kts | 215° |
| 2026-05-08 03:43 | 38.75709 | -112.69878 | 25508 ft | 495 kts | 215° |
| 2026-05-08 03:43 | 38.72790 | -112.72209 | 25786 ft | 494 kts | 216° |
| 2026-05-08 03:43 | 38.69875 | -112.74540 | 26086 ft | 493 kts | 216° |
| 2026-05-08 03:43 | 38.66968 | -112.76862 | 26406 ft | 493 kts | 216° |
| 2026-05-08 03:44 | 38.64054 | -112.79181 | 26699 ft | 492 kts | 215° |
| 2026-05-08 03:44 | 38.61149 | -112.81488 | 27001 ft | 492 kts | 214° |
| 2026-05-08 03:44 | 38.58245 | -112.83790 | 27327 ft | 491 kts | 214° |
| 2026-05-08 03:44 | 38.55341 | -112.86089 | 27671 ft | 490 kts | 214° |
| 2026-05-08 03:45 | 38.52483 | -112.88348 | 28007 ft | 489 kts | 214° |
| 2026-05-08 03:45 | 38.49596 | -112.90626 | 28355 ft | 488 kts | 214° |
| 2026-05-08 03:45 | 38.46670 | -112.92934 | 28704 ft | 487 kts | 214° |
| 2026-05-08 03:45 | 38.43830 | -112.95175 | 29032 ft | 486 kts | 215° |
| 2026-05-08 03:46 | 38.40956 | -112.97443 | 29362 ft | 485 kts | 215° |
| 2026-05-08 03:46 | 38.38091 | -112.99703 | 29691 ft | 484 kts | 215° |
| 2026-05-08 03:46 | 38.35344 | -113.02152 | 30018 ft | 480 kts | 223° |
| 2026-05-08 03:46 | 38.32852 | -113.04960 | 30300 ft | 478 kts | 225° |
| 2026-05-08 03:47 | 38.30381 | -113.07800 | 30556 ft | 477 kts | 225° |
| 2026-05-08 03:47 | 38.27918 | -113.10630 | 30794 ft | 477 kts | 226° |
| 2026-05-08 03:47 | 38.25459 | -113.13456 | 31073 ft | 475 kts | 225° |
| 2026-05-08 03:47 | 38.23003 | -113.16271 | 31346 ft | 475 kts | 225° |
| 2026-05-08 03:48 | 38.20548 | -113.19081 | 31599 ft | 474 kts | 225° |
| 2026-05-08 03:48 | 38.18094 | -113.21884 | 31856 ft | 474 kts | 225° |
| 2026-05-08 03:48 | 38.15637 | -113.24682 | 32101 ft | 474 kts | 225° |
| 2026-05-08 03:48 | 38.13182 | -113.27474 | 32352 ft | 473 kts | 225° |
| 2026-05-08 03:49 | 38.10732 | -113.30261 | 32612 ft | 473 kts | 225° |
| 2026-05-08 03:49 | 38.08281 | -113.33054 | 32867 ft | 473 kts | 225° |
| 2026-05-08 03:49 | 38.05831 | -113.35844 | 33122 ft | 473 kts | 225° |
| 2026-05-08 03:49 | 38.03412 | -113.38591 | 33371 ft | 473 kts | 225° |
| 2026-05-08 03:50 | 38.00930 | -113.41406 | 33630 ft | 473 kts | 225° |
| 2026-05-08 03:50 | 37.98509 | -113.44149 | 33837 ft | 473 kts | 225° |
| 2026-05-08 03:50 | 37.95893 | -113.46883 | 33896 ft | 479 kts | 218° |
| 2026-05-08 03:51 | 37.89858 | -113.50681 | 33895 ft | 492 kts | 199° |
| 2026-05-08 03:51 | 37.83135 | -113.52460 | 33894 ft | 495 kts | 192° |
| 2026-05-08 03:52 | 37.76368 | -113.54080 | 33900 ft | 495 kts | 192° |
| 2026-05-08 03:52 | 37.69606 | -113.55718 | 33897 ft | 495 kts | 192° |
| 2026-05-08 03:53 | 37.62829 | -113.57356 | 33873 ft | 497 kts | 192° |
| 2026-05-08 03:53 | 37.56032 | -113.58986 | 33870 ft | 498 kts | 192° |
| 2026-05-08 03:54 | 37.49222 | -113.60618 | 33875 ft | 498 kts | 192° |
| 2026-05-08 03:54 | 37.42410 | -113.62250 | 33869 ft | 499 kts | 192° |
| 2026-05-08 03:55 | 37.35591 | -113.63880 | 33864 ft | 499 kts | 191° |
| 2026-05-08 03:55 | 37.28774 | -113.65494 | 33872 ft | 498 kts | 192° |
| 2026-05-08 03:56 | 37.21968 | -113.67107 | 33907 ft | 498 kts | 192° |
| 2026-05-08 03:56 | 37.15165 | -113.68722 | 33917 ft | 497 kts | 192° |
| 2026-05-08 03:57 | 37.08365 | -113.70343 | 33920 ft | 498 kts | 192° |
| 2026-05-08 03:57 | 37.01711 | -113.72668 | 33907 ft | 497 kts | 203° |
| 2026-05-08 03:58 | 36.95268 | -113.75806 | 33878 ft | 497 kts | 202° |
| 2026-05-08 03:58 | 36.88814 | -113.78942 | 33862 ft | 498 kts | 202° |
| 2026-05-08 03:59 | 36.82343 | -113.82075 | 33840 ft | 499 kts | 202° |
| 2026-05-08 03:59 | 36.75865 | -113.85199 | 33830 ft | 500 kts | 202° |
| 2026-05-08 04:00 | 36.69371 | -113.88319 | 33823 ft | 500 kts | 202° |
| 2026-05-08 04:00 | 36.62888 | -113.91493 | 33821 ft | 500 kts | 204° |
| 2026-05-08 04:01 | 36.56533 | -113.94994 | 33841 ft | 499 kts | 206° |
| 2026-05-08 04:01 | 36.50226 | -113.98612 | 33846 ft | 499 kts | 206° |
| 2026-05-08 04:02 | 36.43944 | -114.02271 | 33826 ft | 498 kts | 211° |
| 2026-05-08 04:02 | 36.38500 | -114.07446 | 33814 ft | 491 kts | 229° |
| 2026-05-08 04:03 | 36.34027 | -114.13839 | 33793 ft | 490 kts | 232° |
| 2026-05-08 04:03 | 36.27357 | -114.23446 | 33789 ft | 490 kts | 231° |
| 2026-05-08 04:04 | 36.22893 | -114.29834 | 33788 ft | 490 kts | 231° |
| 2026-05-08 04:04 | 36.18415 | -114.36214 | 33790 ft | 491 kts | 231° |
| 2026-05-08 04:05 | 36.13940 | -114.42588 | 33779 ft | 491 kts | 231° |
| 2026-05-08 04:05 | 36.09466 | -114.48961 | 33799 ft | 491 kts | 231° |
| 2026-05-08 04:06 | 36.04954 | -114.55292 | 33830 ft | 491 kts | 231° |
| 2026-05-08 04:06 | 36.00413 | -114.61592 | 33861 ft | 491 kts | 230° |
| 2026-05-08 04:07 | 35.95862 | -114.67889 | 33892 ft | 492 kts | 230° |
| 2026-05-08 04:07 | 35.91334 | -114.74142 | 33911 ft | 492 kts | 230° |
| 2026-05-08 04:08 | 35.86778 | -114.80442 | 33915 ft | 492 kts | 230° |
| 2026-05-08 04:08 | 35.82224 | -114.86744 | 33869 ft | 492 kts | 230° |
| 2026-05-08 04:09 | 35.77637 | -114.93083 | 33896 ft | 492 kts | 230° |
| 2026-05-08 04:09 | 35.73099 | -114.99328 | 33897 ft | 493 kts | 230° |
| 2026-05-08 04:10 | 35.68525 | -115.05607 | 33919 ft | 492 kts | 230° |
| 2026-05-08 04:10 | 35.63952 | -115.11879 | 33923 ft | 492 kts | 230° |
| 2026-05-08 04:11 | 35.59350 | -115.18190 | 33947 ft | 492 kts | 230° |
| 2026-05-08 04:11 | 35.54771 | -115.24438 | 33943 ft | 492 kts | 230° |
| 2026-05-08 04:12 | 35.50206 | -115.30630 | 33964 ft | 492 kts | 230° |
| 2026-05-08 04:12 | 35.45597 | -115.36841 | 33962 ft | 492 kts | 229° |
| 2026-05-08 04:13 | 35.40996 | -115.43036 | 33983 ft | 491 kts | 230° |
| 2026-05-08 04:13 | 35.36409 | -115.49224 | 33984 ft | 490 kts | 229° |
| 2026-05-08 04:14 | 35.31816 | -115.55401 | 33981 ft | 490 kts | 229° |
| 2026-05-08 04:14 | 35.27230 | -115.61567 | 33980 ft | 490 kts | 229° |
| 2026-05-08 04:15 | 35.22634 | -115.67725 | 33952 ft | 490 kts | 229° |
| 2026-05-08 04:15 | 35.20343 | -115.70792 | 33653 ft | 486 kts | 229° |
| 2026-05-08 04:15 | 35.18087 | -115.73808 | 33355 ft | 472 kts | 229° |
| 2026-05-08 04:16 | 35.15905 | -115.76721 | 33213 ft | 457 kts | 229° |
| 2026-05-08 04:16 | 35.13779 | -115.79559 | 33102 ft | 454 kts | 230° |
| 2026-05-08 04:16 | 35.10735 | -115.84787 | 32928 ft | 456 kts | 240° |
| 2026-05-08 04:17 | 35.09076 | -115.88093 | 32823 ft | 457 kts | 240° |
| 2026-05-08 04:17 | 35.07410 | -115.91400 | 32691 ft | 457 kts | 240° |
| 2026-05-08 04:17 | 35.05739 | -115.94698 | 32589 ft | 458 kts | 240° |
| 2026-05-08 04:17 | 35.04058 | -115.98006 | 32068 ft | 460 kts | 240° |
| 2026-05-08 04:18 | 35.01799 | -116.02445 | 30739 ft | 468 kts | 240° |
| 2026-05-08 04:18 | 35.00068 | -116.05842 | 29581 ft | 476 kts | 240° |
| 2026-05-08 04:18 | 34.98880 | -116.08168 | 28761 ft | 480 kts | 239° |
| 2026-05-08 04:18 | 34.97108 | -116.11625 | 27661 ft | 482 kts | 239° |
| 2026-05-08 04:19 | 34.95317 | -116.15116 | 26373 ft | 488 kts | 239° |
| 2026-05-08 04:19 | 34.93511 | -116.18644 | 25124 ft | 493 kts | 239° |
| 2026-05-08 04:19 | 34.91747 | -116.22241 | 23901 ft | 495 kts | 244° |
| 2026-05-08 04:19 | 34.90276 | -116.26025 | 23124 ft | 493 kts | 247° |
| 2026-05-08 04:20 | 34.88823 | -116.29810 | 22854 ft | 493 kts | 246° |
| 2026-05-08 04:20 | 34.87361 | -116.33587 | 22900 ft | 494 kts | 246° |
| 2026-05-08 04:20 | 34.85893 | -116.37361 | 22897 ft | 494 kts | 247° |
| 2026-05-08 04:20 | 34.84417 | -116.41139 | 22914 ft | 494 kts | 246° |
| 2026-05-08 04:21 | 34.82938 | -116.44919 | 22922 ft | 494 kts | 246° |
| 2026-05-08 04:21 | 34.81460 | -116.48694 | 22932 ft | 495 kts | 246° |
| 2026-05-08 04:21 | 34.79999 | -116.52479 | 22941 ft | 494 kts | 248° |
| 2026-05-08 04:21 | 34.78885 | -116.56416 | 22948 ft | 491 kts | 258° |
| 2026-05-08 04:22 | 34.78249 | -116.60484 | 22605 ft | 487 kts | 265° |
| 2026-05-08 04:22 | 34.77880 | -116.64561 | 22363 ft | 485 kts | 265° |
| 2026-05-08 04:22 | 34.77504 | -116.68632 | 22094 ft | 484 kts | 265° |
| 2026-05-08 04:22 | 34.77118 | -116.72689 | 21858 ft | 481 kts | 265° |
| 2026-05-08 04:23 | 34.76726 | -116.76718 | 21735 ft | 480 kts | 266° |
| 2026-05-08 04:23 | 34.76327 | -116.80757 | 21572 ft | 480 kts | 264° |
| 2026-05-08 04:23 | 34.75929 | -116.84777 | 21411 ft | 478 kts | 265° |
| 2026-05-08 04:23 | 34.75531 | -116.88784 | 21241 ft | 477 kts | 265° |
| 2026-05-08 04:24 | 34.75129 | -116.92787 | 21086 ft | 476 kts | 264° |
| 2026-05-08 04:24 | 34.74724 | -116.96774 | 20919 ft | 474 kts | 264° |
| 2026-05-08 04:24 | 34.74317 | -117.00749 | 20756 ft | 473 kts | 265° |
| 2026-05-08 04:24 | 34.73908 | -117.04717 | 20599 ft | 473 kts | 264° |
| 2026-05-08 04:25 | 34.73501 | -117.08671 | 20432 ft | 471 kts | 264° |
| 2026-05-08 04:25 | 34.73099 | -117.12617 | 20278 ft | 470 kts | 265° |
| 2026-05-08 04:25 | 34.72696 | -117.16557 | 20116 ft | 470 kts | 264° |
| 2026-05-08 04:25 | 34.72290 | -117.20491 | 20060 ft | 468 kts | 264° |
| 2026-05-08 04:26 | 34.71880 | -117.24414 | 19922 ft | 467 kts | 264° |
| 2026-05-08 04:26 | 34.71470 | -117.28333 | 19787 ft | 467 kts | 264° |
| 2026-05-08 04:26 | 34.71066 | -117.32243 | 19625 ft | 465 kts | 264° |
| 2026-05-08 04:26 | 34.70663 | -117.36139 | 19497 ft | 464 kts | 265° |
| 2026-05-08 04:27 | 34.70258 | -117.40032 | 19343 ft | 464 kts | 264° |
| 2026-05-08 04:27 | 34.69851 | -117.43916 | 19186 ft | 462 kts | 264° |
| 2026-05-08 04:27 | 34.69443 | -117.47785 | 18975 ft | 461 kts | 264° |
| 2026-05-08 04:27 | 34.69034 | -117.51644 | 18409 ft | 459 kts | 264° |
| 2026-05-08 04:28 | 34.68625 | -117.55470 | 17889 ft | 455 kts | 264° |
| 2026-05-08 04:28 | 34.68215 | -117.59270 | 17411 ft | 453 kts | 264° |
| 2026-05-08 04:28 | 34.67809 | -117.63055 | 16933 ft | 451 kts | 264° |
| 2026-05-08 04:28 | 34.67408 | -117.66814 | 16453 ft | 447 kts | 264° |
| 2026-05-08 04:29 | 34.67015 | -117.70542 | 15978 ft | 444 kts | 264° |
| 2026-05-08 04:29 | 34.66625 | -117.74256 | 15491 ft | 442 kts | 264° |
| 2026-05-08 04:29 | 34.66241 | -117.77892 | 15071 ft | 439 kts | 263° |
| 2026-05-08 04:29 | 34.65849 | -117.81551 | 14631 ft | 435 kts | 264° |
| 2026-05-08 04:30 | 34.65456 | -117.85191 | 14198 ft | 434 kts | 264° |
| 2026-05-08 04:30 | 34.65064 | -117.88820 | 13519 ft | 433 kts | 264° |
| 2026-05-08 04:30 | 34.64672 | -117.92447 | 12768 ft | 430 kts | 263° |
| 2026-05-08 04:30 | 34.64295 | -117.95909 | 12527 ft | 397 kts | 264° |
| 2026-05-08 04:31 | 34.63942 | -117.99107 | 12328 ft | 367 kts | 263° |
| 2026-05-08 04:31 | 34.63614 | -118.02060 | 12197 ft | 338 kts | 263° |
| 2026-05-08 04:31 | 34.63311 | -118.04787 | 12004 ft | 316 kts | 263° |
| 2026-05-08 04:31 | 34.62923 | -118.07369 | 11510 ft | 307 kts | 255° |
| 2026-05-08 04:32 | 34.62370 | -118.09849 | 10934 ft | 301 kts | 256° |
| 2026-05-08 04:32 | 34.61830 | -118.12280 | 10381 ft | 296 kts | 256° |
| 2026-05-08 04:32 | 34.61301 | -118.14665 | 10147 ft | 290 kts | 255° |
| 2026-05-08 04:32 | 34.60777 | -118.17020 | 10082 ft | 288 kts | 255° |
| 2026-05-08 04:33 | 34.60255 | -118.19365 | 9981 ft | 286 kts | 256° |
| 2026-05-08 04:33 | 34.59734 | -118.21700 | 9692 ft | 286 kts | 255° |
| 2026-05-08 04:33 | 34.59217 | -118.24021 | 9394 ft | 285 kts | 256° |
| 2026-05-08 04:33 | 34.58701 | -118.26336 | 9114 ft | 284 kts | 256° |
| 2026-05-08 04:34 | 34.58188 | -118.28645 | 8830 ft | 282 kts | 256° |
| 2026-05-08 04:34 | 34.57676 | -118.30933 | 8550 ft | 280 kts | 256° |
| 2026-05-08 04:34 | 34.57162 | -118.33220 | 8288 ft | 281 kts | 257° |
| 2026-05-08 04:34 | 34.56649 | -118.35506 | 8047 ft | 280 kts | 257° |
| 2026-05-08 04:35 | 34.56141 | -118.37782 | 7982 ft | 280 kts | 258° |
| 2026-05-08 04:35 | 34.55629 | -118.40068 | 7987 ft | 282 kts | 257° |
| 2026-05-08 04:35 | 34.54888 | -118.42274 | 7989 ft | 286 kts | 242° |
| 2026-05-08 04:35 | 34.53632 | -118.44159 | 7883 ft | 291 kts | 224° |
| 2026-05-08 04:36 | 34.51983 | -118.45577 | 7675 ft | 291 kts | 216° |
| 2026-05-08 04:36 | 34.50279 | -118.46909 | 7483 ft | 292 kts | 217° |
| 2026-05-08 04:36 | 34.48577 | -118.48249 | 7286 ft | 292 kts | 217° |
| 2026-05-08 04:36 | 34.46868 | -118.49598 | 7083 ft | 293 kts | 217° |
| 2026-05-08 04:37 | 34.45158 | -118.50937 | 6899 ft | 292 kts | 217° |
| 2026-05-08 04:37 | 34.43448 | -118.52268 | 6709 ft | 292 kts | 217° |
| 2026-05-08 04:37 | 34.41734 | -118.53594 | 6511 ft | 291 kts | 216° |
| 2026-05-08 04:37 | 34.40037 | -118.54903 | 6327 ft | 288 kts | 216° |
| 2026-05-08 04:38 | 34.38350 | -118.56194 | 6140 ft | 287 kts | 213° |
| 2026-05-08 04:38 | 34.36496 | -118.57106 | 5945 ft | 290 kts | 196° |
| 2026-05-08 04:38 | 34.34506 | -118.57362 | 5707 ft | 288 kts | 180° |
| 2026-05-08 04:38 | 34.32524 | -118.57277 | 5486 ft | 281 kts | 181° |
| 2026-05-08 04:39 | 34.30594 | -118.57202 | 5251 ft | 274 kts | 180° |
| 2026-05-08 04:39 | 34.28715 | -118.57127 | 5028 ft | 267 kts | 181° |
| 2026-05-08 04:39 | 34.26863 | -118.57009 | 4676 ft | 266 kts | 179° |
| 2026-05-08 04:39 | 34.25023 | -118.56864 | 4346 ft | 264 kts | 178° |
| 2026-05-08 04:40 | 34.23218 | -118.56571 | 4035 ft | 261 kts | 163° |
| 2026-05-08 04:40 | 34.21665 | -118.55576 | 3746 ft | 257 kts | 140° |
| 2026-05-08 04:40 | 34.20536 | -118.53941 | 3437 ft | 252 kts | 117° |
| 2026-05-08 04:40 | 34.20003 | -118.51959 | 3128 ft | 247 kts | 95° |
| 2026-05-08 04:41 | 34.19949 | -118.49906 | 2821 ft | 243 kts | 90° |
| 2026-05-08 04:41 | 34.19926 | -118.47906 | 2525 ft | 231 kts | 90° |
| 2026-05-08 04:41 | 34.19902 | -118.46043 | 2212 ft | 211 kts | 91° |
| 2026-05-08 04:41 | 34.19881 | -118.44345 | 1975 ft | 192 kts | 91° |
| 2026-05-08 04:42 | 34.19862 | -118.42811 | 1701 ft | 173 kts | 91° |
| 2026-05-08 04:42 | 34.19844 | -118.41453 | 1492 ft | 153 kts | 92° |
| 2026-05-08 04:42 | 34.19830 | -118.40203 | 1295 ft | 144 kts | 92° |
| 2026-05-08 04:42 | 34.19817 | -118.39012 | 1154 ft | 140 kts | 94° |
| 2026-05-08 04:43 | 34.19799 | -118.37853 | 960 ft | 138 kts | 92° |
| 2026-05-08 04:43 | 34.19788 | -118.36721 | 740 ft | 134 kts | 95° |
| 2026-05-08 04:43 | 34.19771 | -118.35768 | 690 ft | 77 kts | 90° |
| 2026-05-08 04:43 | 34.19770 | -118.35481 | 691 ft | 0 kts | 90° |
| 2026-05-08 04:44 | 34.19767 | -118.35478 | 691 ft | 1 kts | 131° |
| 2026-05-08 04:44 | 34.19732 | -118.35501 | 694 ft | 13 kts | 235° |
| 2026-05-08 04:44 | 34.19657 | -118.35552 | 688 ft | 15 kts | 171° |
| 2026-05-08 04:44 | 34.19618 | -118.35534 | 687 ft | 3 kts | 126° |
| 2026-05-08 04:45 | 34.19618 | -118.35525 | 688 ft | 0 kts | 86° |
| 2026-05-08 04:45 | 34.19622 | -118.35514 | 687 ft | 3 kts | 74° |
| 2026-05-08 04:45 | 34.19620 | -118.35507 | 687 ft | 1 kts | 98° |
| 2026-05-08 04:45 | 34.19610 | -118.35492 | 687 ft | 0 kts | 125° |
| 2026-05-08 04:46 | 34.19609 | -118.35490 | 688 ft | 1 kts | 125° |
| 2026-05-08 04:46 | 34.19607 | -118.35487 | 689 ft | 0 kts | 125° |